EW2513 Weather Reports


time (UTC)temp
C
wind
direction
speed
KPH
gust
KPH
rain 1hr
cm
rain 24hr
cm
rain mn
cm
humidity
%
barometer
mb
20260906173840 25 102 0.0 4.8 0.00 0.00 0.00 65 1020.7
20260906172846 25 102 0.0 11.3 0.00 0.00 0.00 62 1020.8
20260906171856 25 104 0.0 12.9 0.00 0.00 0.00 64 1020.7
20260906170844 25 95 1.6 12.9 0.00 0.00 0.00 64 1020.7
20260906165836 26 87 3.2 9.7 0.00 0.00 0.00 61 1020.8
20260906164845 25 86 0.0 6.4 0.00 0.00 0.00 63 1020.8
20260906163834 25 81 0.0 3.2 0.00 0.00 0.00 62 1020.9
20260906162841 25 81 0.0 6.4 0.00 0.00 0.00 63 1021.0
20260906161833 25 81 0.0 6.4 0.00 0.00 0.00 64 1020.9
20260906160843 24 81 0.0 3.2 0.00 0.00 0.00 64 1021.0
20260906155832 24 81 4.8 8.0 0.00 0.00 0.00 66 1021.0
20260906154840 23 79 0.0 3.2 0.00 0.00 0.00 67 1021.0
20260906153834 23 79 0.0 3.2 0.00 0.00 0.00 66 1021.1
20260906152903 23 79 4.8 6.4 0.00 0.00 0.00 67 1021.1
20260906151830 23 70 3.2 9.7 0.00 0.00 0.00 71 1021.2
20260906150900 22 62 0.0 0.0 0.00 0.00 0.00 69 1021.3
20260906145830 22 58 0.0 0.0 0.00 0.00 0.00 70 1021.3
20260906144838 21 58 0.0 0.0 0.00 0.00 0.00 73 1021.4
20260906143847 21 58 0.0 0.0 0.00 0.00 0.00 76 1021.5
20260906142835 20 58 0.0 0.0 0.00 0.00 0.00 78 1021.4
20260906141848 20 58 0.0 0.0 0.00 0.00 0.00 82 1021.4
20260906140836 18 58 0.0 0.0 0.00 0.00 0.00 84 1021.4
20260906135905 18 58 0.0 0.0 0.00 0.00 0.00 89 1021.4
20260906134832 17 58 0.0 0.0 0.00 0.00 0.00 93 1021.5
20260906133904 16 58 0.0 0.0 0.00 0.00 0.00 94 1021.5
20260906132831 15 58 0.0 0.0 0.00 0.00 0.00 95 1021.6
20260906131839 15 58 0.0 0.0 0.00 0.00 0.00 95 1021.5
20260906130848 14 58 0.0 0.0 0.00 0.00 0.00 95 1021.5
20260906125839 13 58 0.0 0.0 0.00 0.00 0.00 95 1021.4
20260906124848 12 58 0.0 0.0 0.00 0.00 0.00 94 1021.2
20260906123837 11 58 0.0 0.0 0.00 0.00 0.00 94 1021.2
20260906122844 11 58 0.0 0.0 0.00 0.00 0.00 94 1021.2
20260906121837 10 58 0.0 0.0 0.00 0.00 0.00 93 1021.2
20260906120907 10 58 0.0 0.0 0.00 0.00 0.00 93 1021.3
20260906115834 10 58 0.0 0.0 0.00 0.00 0.00 93 1021.2
20260906114843 10 58 0.0 0.0 0.00 0.00 0.00 93 1021.1
20260906113837 10 58 0.0 0.0 0.00 0.00 0.00 93 1021.0
20260906112845 10 58 0.0 0.0 0.00 0.00 0.00 93 1021.0
20260906111833 10 58 0.0 0.0 0.00 0.00 0.00 93 1020.8
20260906110847 10 58 0.0 0.0 0.00 0.00 0.00 92 1020.8
20260906105834 10 58 0.0 0.0 0.00 0.00 0.00 92 1020.7
20260906104843 10 58 0.0 0.0 0.00 0.00 0.00 93 1020.6
20260906103833 10 58 0.0 0.0 0.00 0.00 0.00 92 1020.6
20260906102845 11 58 0.0 0.0 0.00 0.00 0.00 92 1020.6
20260906101834 11 58 0.0 0.0 0.00 0.00 0.00 92 1020.5
20260906100844 11 58 0.0 0.0 0.00 0.00 0.00 92 1020.5
20260906095831 11 58 0.0 0.0 0.00 0.00 0.00 92 1020.4
20260906094844 11 58 0.0 0.0 0.00 0.00 0.00 92 1020.3
20260906093834 11 58 0.0 0.0 0.00 0.00 0.00 92 1020.3
20260906092843 11 58 0.0 0.0 0.00 0.00 0.00 92 1020.3
20260906091835 11 58 0.0 0.0 0.00 0.00 0.00 92 1020.3
20260906090845 11 58 0.0 0.0 0.00 0.00 0.00 92 1020.4
20260906085833 11 58 0.0 0.0 0.00 0.00 0.00 92 1020.5
20260906084902 11 58 0.0 0.0 0.00 0.00 0.00 92 1020.6
20260906083834 11 58 0.0 0.0 0.00 0.00 0.00 92 1020.5
20260906082843 11 58 0.0 0.0 0.00 0.00 0.00 92 1020.4
20260906081831 11 58 0.0 0.0 0.00 0.00 0.00 92 1020.2
20260906080842 12 58 0.0 0.0 0.00 0.00 0.00 92 1020.2
20260906075834 12 58 0.0 0.0 0.00 0.00 0.00 92 1020.2
20260906074903 12 58 0.0 0.0 0.00 0.00 0.00 91 1020.1
20260906073831 12 58 0.0 0.0 0.00 0.00 0.00 91 1020.1
20260906072840 12 58 0.0 0.0 0.00 0.00 0.00 91 1020.1
20260906071833 12 58 0.0 0.0 0.00 0.00 0.00 91 1020.0
20260906070843 12 58 0.0 0.0 0.00 0.00 0.00 91 1020.0
20260906065850 12 58 0.0 0.0 0.00 0.00 0.00 91 1020.1
20260906064837 12 58 0.0 0.0 0.00 0.00 0.00 91 1019.9
20260906063831 12 58 0.0 0.0 0.00 0.00 0.00 91 1019.9
20260906062859 13 58 0.0 0.0 0.00 0.00 0.00 91 1019.9
20260906061847 13 58 0.0 0.0 0.00 0.00 0.00 91 1019.7
20260906060837 13 58 0.0 0.0 0.00 0.00 0.00 91 1019.8
20260906055829 13 58 0.0 0.0 0.00 0.00 0.00 90 1019.7
20260906054837 13 58 0.0 0.0 0.00 0.00 0.00 91 1019.5
20260906053847 13 58 0.0 0.0 0.00 0.00 0.00 90 1019.5
20260906052835 13 58 0.0 0.0 0.00 0.00 0.00 90 1019.4
20260906051908 13 58 0.0 0.0 0.00 0.00 0.00 90 1019.4
20260906050836 14 58 0.0 0.0 0.00 0.00 0.00 90 1019.3
20260906045904 14 58 0.0 0.0 0.00 0.00 0.00 90 1019.1
20260906044831 14 58 0.0 0.0 0.00 0.00 0.00 89 1019.1
20260906043843 15 58 0.0 0.0 0.00 0.00 0.00 89 1019.1
20260906042851 15 58 0.0 0.0 0.00 0.00 0.00 89 1019.3
20260906041837 15 58 0.0 0.0 0.00 0.00 0.00 88 1019.3
20260906040846 15 58 0.0 0.0 0.00 0.00 0.00 88 1019.3
20260906035838 15 58 0.0 0.0 0.00 0.00 0.00 88 1019.1
20260906034846 16 58 0.0 0.0 0.00 0.00 0.00 88 1018.9
20260906033835 16 58 0.0 0.0 0.00 0.00 0.00 87 1018.9
20260906032844 16 58 0.0 0.0 0.00 0.00 0.00 87 1018.9
20260906031835 16 58 0.0 0.0 0.00 0.00 0.00 87 1019.0
20260906030845 16 58 0.0 0.0 0.00 0.00 0.00 87 1019.0
20260906025833 17 58 0.0 0.0 0.00 0.00 0.00 87 1018.9
20260906024840 17 58 0.0 0.0 0.00 0.00 0.00 86 1018.8
20260906023835 17 58 0.0 0.0 0.00 0.00 0.00 86 1018.8
20260906022842 17 58 0.0 0.0 0.00 0.00 0.00 86 1018.7
20260906021828 18 58 0.0 0.0 0.00 0.00 0.00 85 1018.7
20260906020838 18 58 0.0 0.0 0.00 0.00 0.00 85 1018.7
20260906015831 18 58 0.0 0.0 0.00 0.03 0.00 85 1018.5
20260906014900 18 58 0.0 0.0 0.00 0.03 0.00 84 1018.4
20260906013848 19 58 0.0 0.0 0.00 0.03 0.00 83 1018.4
20260906012836 19 58 0.0 0.0 0.00 0.03 0.00 83 1018.4
20260906011828 20 58 0.0 0.0 0.00 0.03 0.00 81 1018.3
20260906010837 20 58 0.0 0.0 0.00 0.03 0.00 80 1018.3
20260906005844 20 58 1.6 4.8 0.00 0.03 0.00 79 1018.1
20260906004852 21 58 0.0 3.2 0.00 0.03 0.00 78 1018.0
20260906003843 21 58 0.0 0.0 0.00 0.03 0.00 77 1017.9
20260906002829 21 58 0.0 0.0 0.00 0.03 0.00 77 1017.9
20260906001837 21 58 1.6 9.7 0.00 0.03 0.00 77 1017.7
20260906000830 21 60 1.6 4.8 0.00 0.03 0.00 77 1017.6
20260905235858 22 60 0.0 0.0 0.00 0.08 0.00 75 1017.5
20260905234846 22 60 0.0 0.0 0.00 0.08 0.00 74 1017.4
20260905233835 22 60 0.0 0.0 0.00 0.08 0.00 71 1017.4
20260905232841 23 60 0.0 0.0 0.00 0.08 0.00 70 1017.4
20260905231834 23 60 0.0 0.0 0.00 0.08 0.00 67 1017.4
20260905230843 24 60 0.0 0.0 0.00 0.08 0.00 65 1017.5
20260905225831 25 60 0.0 0.0 0.00 0.08 0.00 60 1017.4
20260905224842 25 60 0.0 6.4 0.00 0.08 0.00 59 1017.4
20260905223851 25 58 1.6 6.4 0.00 0.08 0.00 59 1017.3
20260905222838 25 57 0.0 3.2 0.00 0.08 0.00 57 1017.5
20260905221907 25 57 0.0 0.0 0.00 0.08 0.00 62 1017.4
20260905220835 25 57 0.0 0.0 0.00 0.08 0.00 59 1017.4
20260905215845 26 57 0.0 0.0 0.00 0.08 0.00 61 1017.5
20260905214832 27 57 0.0 0.0 0.00 0.08 0.00 54 1017.6
20260905213841 27 57 0.0 8.0 0.00 0.08 0.00 55 1017.5
20260905212834 27 58 0.0 6.4 0.00 0.08 0.00 58 1017.5
20260905211843 27 61 0.0 0.0 0.00 0.08 0.00 52 1017.4
20260905210833 26 61 1.6 8.0 0.00 0.08 0.00 54 1017.3
20260905205841 26 59 1.6 4.8 0.00 0.08 0.00 54 1017.3
20260905204854 26 59 0.0 4.8 0.00 0.08 0.00 54 1017.2
20260905203903 27 59 4.8 9.7 0.00 0.08 0.00 53 1017.4
20260905202850 27 57 3.2 8.0 0.00 0.08 0.00 54 1017.4
20260905201838 26 51 1.6 8.0 0.00 0.08 0.00 54 1017.5
20260905200827 26 60 1.6 8.0 0.00 0.08 0.00 56 1017.6
20260905195901 26 35 0.0 6.4 0.00 0.08 0.00 60 1017.6
20260905194829 26 35 1.6 16.1 0.00 0.08 0.00 57 1017.6
20260905193839 27 103 4.8 12.9 0.00 0.08 0.00 58 1017.5
20260905192848 26 56 1.6 9.7 0.00 0.08 0.00 56 1017.7
20260905191840 26 45 1.6 16.1 0.00 0.08 0.00 58 1017.8
20260905190850 26 61 0.0 8.0 0.00 0.08 0.00 59 1017.7
20260905185837 26 56 4.8 9.7 0.00 0.08 0.00 59 1017.8
20260905184846 25 54 0.0 3.2 0.00 0.08 0.00 60 1017.7
20260905183840 25 54 0.0 8.0 0.00 0.08 0.00 62 1018.0
20260905182828 25 43 3.2 16.1 0.00 0.08 0.00 62 1018.0
20260905181857 25 52 0.0 6.4 0.00 0.08 0.00 62 1018.3
20260905180845 25 47 1.6 6.4 0.00 0.08 0.00 62 1018.3
20260905175836 25 46 1.6 14.5 0.00 0.08 0.00 62 1018.4
20260905174845 25 63 4.8 9.7 0.00 0.08 0.00 64 1018.2